Time;durP1;ratioP1;P1;durP2;ratioP2;P2;SDS_P1;SDS_P2;PMS_P1;PMS_P2;Temp;Humidity;BMP_temperature;BMP_pressure;BME280_temperature;BME280_humidity;BME280_pressure;Samples;Min_cycle;Max_cycle;Signal;HPM_P1;HPM_P2
2021/08/08 00:02:31;;;;;;;4.17;1.63;;;;;;;14.40;100.00;155058.69;5070095;28;20432;-75
2021/08/08 00:05:07;;;;;;;1.90;1.30;;;;;;;14.40;100.00;155059.94;5067861;28;20928;-75
2021/08/08 00:07:42;;;;;;;5.70;1.80;;;;;;;14.40;100.00;155059.94;5069832;28;20449;-75
2021/08/08 00:10:19;;;;;;;3.20;1.50;;;;;;;14.43;100.00;155067.75;5068307;28;20487;-75
2021/08/08 00:12:55;;;;;;;2.13;1.53;;;;;;;14.42;100.00;155065.19;5065001;28;20443;-75
2021/08/08 00:15:30;;;;;;;1.73;1.10;;;;;;;14.38;100.00;155054.75;5099789;28;20439;-75
2021/08/08 00:18:06;;;;;;;1.90;1.40;;;;;;;14.34;100.00;155044.41;5067007;28;20935;-75
2021/08/08 00:20:42;;;;;;;5.40;1.43;;;;;;;14.30;100.00;155033.94;5068274;28;20892;-75
2021/08/08 00:23:17;;;;;;;2.40;1.30;;;;;;;14.30;100.00;155033.94;5060770;28;20457;-75
2021/08/08 00:25:54;;;;;;;1.67;1.30;;;;;;;14.28;100.00;155028.75;5096466;28;20452;-76
2021/08/08 00:28:30;;;;;;;2.60;1.20;;;;;;;14.26;100.00;155023.56;5091306;28;20488;-75
2021/08/08 00:31:06;;;;;;;2.40;1.43;;;;;;;14.29;100.00;155031.38;5059493;28;20458;-75
2021/08/08 00:33:42;;;;;;;2.23;1.90;;;;;;;14.30;100.00;155032.63;5086203;28;20453;-75
2021/08/08 00:36:18;;;;;;;1.50;1.37;;;;;;;14.35;100.00;155046.97;5045720;28;20447;-75
2021/08/08 00:38:56;;;;;;;3.10;1.70;;;;;;;14.34;100.00;155044.41;5062001;28;20452;-75
2021/08/08 00:41:35;;;;;;;3.10;1.40;;;;;;;14.47;100.00;155076.84;5081333;28;20811;-75
2021/08/08 00:44:12;;;;;;;2.00;1.60;;;;;;;14.40;100.00;155059.94;5032900;28;20448;-75
2021/08/08 00:46:47;;;;;;;2.80;1.80;;;;;;;14.41;100.00;155061.25;5037033;28;20447;-76
2021/08/08 00:49:23;;;;;;;4.30;1.43;;;;;;;14.41;100.00;155062.56;5049321;28;20444;-75
2021/08/08 00:52:00;;;;;;;3.23;1.33;;;;;;;14.42;100.00;155065.19;5046258;28;20508;-75
2021/08/08 00:54:40;;;;;;;1.80;1.30;;;;;;;14.46;100.00;155075.53;5066032;28;20449;-75
2021/08/08 00:57:17;;;;;;;1.50;1.10;;;;;;;14.44;100.00;155069.06;5055562;28;20447;-75
2021/08/08 00:59:54;;;;;;;2.50;1.53;;;;;;;14.45;100.00;155071.69;5038718;28;20870;-75
2021/08/08 01:02:32;;;;;;;2.03;1.43;;;;;;;14.45;100.00;155072.97;5087130;28;20453;-75
2021/08/08 01:05:14;;;;;;;5.37;1.97;;;;;;;14.47;100.00;155078.16;5086034;28;20928;-75
2021/08/08 01:07:53;;;;;;;2.03;1.20;;;;;;;14.44;100.00;155069.06;5050965;28;20462;-76
2021/08/08 01:10:28;;;;;;;1.80;1.20;;;;;;;14.45;100.00;155072.97;5083834;28;20440;-75
2021/08/08 01:13:07;;;;;;;2.10;1.37;;;;;;;14.41;100.00;155062.56;5042720;28;20939;-75
2021/08/08 01:15:43;;;;;;;3.20;1.30;;;;;;;14.40;100.00;155059.94;5031952;28;20901;-75
2021/08/08 01:18:19;;;;;;;2.93;1.37;;;;;;;14.35;100.00;155046.97;5034862;28;20448;-75
2021/08/08 01:20:56;;;;;;;1.90;1.70;;;;;;;14.31;100.00;155036.59;5067263;28;20472;-75
2021/08/08 01:23:34;;;;;;;1.60;1.20;;;;;;;14.27;100.00;155024.88;5086187;28;20456;-75
2021/08/08 01:26:12;;;;;;;2.23;1.50;;;;;;;14.30;100.00;155032.63;5101628;28;20439;-75
2021/08/08 01:28:49;;;;;;;2.23;1.23;;;;;;;14.26;100.00;155023.56;5047371;28;20967;-75
2021/08/08 01:31:25;;;;;;;2.33;1.40;;;;;;;14.29;100.00;155031.38;5068426;28;20435;-75
2021/08/08 01:34:00;;;;;;;4.47;1.67;;;;;;;14.25;100.00;155020.94;5055196;28;20489;-75
2021/08/08 01:36:36;;;;;;;2.00;1.27;;;;;;;14.25;100.00;155020.94;5086405;28;20459;-75
2021/08/08 01:39:15;;;;;;;3.90;1.43;;;;;;;14.25;100.00;155020.94;5051499;28;20449;-75
2021/08/08 01:41:55;;;;;;;2.40;1.30;;;;;;;14.26;100.00;155023.56;5070007;28;20438;-74
2021/08/08 01:44:34;;;;;;;4.40;1.73;;;;;;;14.31;100.00;155035.25;5055975;28;20452;-75
2021/08/08 01:47:14;;;;;;;4.13;1.20;;;;;;;14.29;100.00;155031.38;5048564;28;20444;-75
2021/08/08 01:49:51;;;;;;;1.53;1.10;;;;;;;14.30;100.00;155033.94;5034569;28;20487;-75
2021/08/08 01:52:35;;;;;;;2.00;1.17;;;;;;;14.31;100.00;155036.59;5048300;28;20445;-75
2021/08/08 01:55:11;;;;;;;1.93;1.20;;;;;;;14.31;100.00;155035.25;5055490;28;20463;-75
2021/08/08 01:58:05;;;;;;;1.63;1.10;;;;;;;14.33;100.00;155041.78;5051986;28;20840;-75
2021/08/08 02:00:41;;;;;;;1.53;1.10;;;;;;;14.32;100.00;155037.91;5089251;28;20499;-75
2021/08/08 02:03:33;;;;;;;1.87;1.10;;;;;;;14.29;100.00;155031.38;5034689;28;20456;-75
2021/08/08 02:06:10;;;;;;;2.00;1.10;;;;;;;14.25;100.00;155019.66;5050415;28;20582;-75
2021/08/08 02:08:52;;;;;;;3.07;1.10;;;;;;;14.22;100.00;155013.16;5050287;28;20483;-75
2021/08/08 02:11:28;;;;;;;2.07;1.47;;;;;;;14.20;100.00;155007.97;5068230;28;20444;-75
2021/08/08 02:14:13;;;;;;;1.67;1.30;;;;;;;14.14;100.00;154992.38;5069990;28;20435;-75
2021/08/08 02:16:48;;;;;;;1.60;1.40;;;;;;;14.12;100.00;154987.19;5086124;28;20444;-75
2021/08/08 02:19:27;;;;;;;2.53;1.27;;;;;;;14.04;100.00;154967.72;5079087;28;20954;-75
2021/08/08 02:22:07;;;;;;;2.57;1.07;;;;;;;14.03;100.00;154965.13;5088538;28;20444;-75
2021/08/08 02:24:51;;;;;;;2.47;1.60;;;;;;;13.98;100.00;154950.81;5045874;28;20470;-75
2021/08/08 02:27:31;;;;;;;2.20;1.40;;;;;;;13.92;100.00;154935.28;5059732;28;20448;-76
2021/08/08 02:30:21;;;;;;;3.37;1.30;;;;;;;13.87;100.00;154923.56;5072986;28;20483;-75
2021/08/08 02:32:57;;;;;;;2.90;1.33;;;;;;;13.88;100.00;154924.88;5043458;28;20509;-75
2021/08/08 02:35:32;;;;;;;3.17;1.40;;;;;;;13.90;100.00;154930.06;5091925;28;20566;-75
2021/08/08 02:38:08;;;;;;;1.63;1.10;;;;;;;13.91;100.00;154933.97;5066867;28;20431;-76
2021/08/08 02:40:44;;;;;;;2.20;1.30;;;;;;;13.92;100.00;154935.28;5067829;28;20436;-75
2021/08/08 02:43:22;;;;;;;2.77;1.30;;;;;;;13.98;100.00;154950.81;5048802;28;20454;-75
2021/08/08 02:45:59;;;;;;;3.43;1.70;;;;;;;13.99;100.00;154954.75;5054596;28;20536;-75
2021/08/08 02:48:35;;;;;;;2.43;1.80;;;;;;;13.98;100.00;154952.13;5062681;28;20488;-75
2021/08/08 02:51:12;;;;;;;1.80;1.37;;;;;;;14.00;100.00;154956.06;5032740;28;20833;-75
2021/08/08 02:53:47;;;;;;;2.53;1.40;;;;;;;13.98;100.00;154952.13;5033213;28;20451;-75
2021/08/08 02:56:24;;;;;;;4.10;1.30;;;;;;;13.94;100.00;154940.47;5050621;28;20415;-75
2021/08/08 02:59:01;;;;;;;2.10;1.57;;;;;;;13.90;100.00;154931.38;5047558;28;20836;-75
2021/08/08 03:01:38;;;;;;;2.20;1.50;;;;;;;13.93;100.00;154937.84;5069946;28;20658;-75
2021/08/08 03:04:13;;;;;;;2.50;1.13;;;;;;;13.86;100.00;154921.00;5087691;28;20922;-76
2021/08/08 03:06:50;;;;;;;2.80;1.50;;;;;;;13.83;100.00;154911.91;5086562;28;20959;-75
2021/08/08 03:09:29;;;;;;;2.00;1.40;;;;;;;13.81;100.00;154906.72;5067045;28;20479;-75
2021/08/08 03:12:05;;;;;;;3.77;1.27;;;;;;;13.81;100.00;154906.72;5067161;28;20463;-75
2021/08/08 03:14:46;;;;;;;2.80;1.60;;;;;;;13.79;100.00;154901.53;5033136;28;20448;-75
2021/08/08 03:17:23;;;;;;;2.50;1.33;;;;;;;13.76;100.00;154895.06;5063359;28;20561;-75
2021/08/08 03:19:59;;;;;;;3.30;1.57;;;;;;;13.81;100.00;154906.72;5034418;28;20452;-75
2021/08/08 03:22:36;;;;;;;2.40;1.27;;;;;;;13.77;100.00;154896.31;5049805;28;20455;-75
2021/08/08 03:25:12;;;;;;;3.83;1.77;;;;;;;13.75;100.00;154891.13;5033796;28;20483;-75
2021/08/08 03:27:50;;;;;;;2.10;1.37;;;;;;;13.74;100.00;154888.56;5050872;28;20458;-75
2021/08/08 03:30:26;;;;;;;2.00;1.60;;;;;;;13.72;100.00;154883.34;5068439;28;20728;-75
2021/08/08 03:33:04;;;;;;;1.87;1.27;;;;;;;13.68;100.00;154872.97;5076941;28;20963;-76
2021/08/08 03:35:40;;;;;;;1.70;1.33;;;;;;;13.69;100.00;154875.53;5092390;28;20771;-75
2021/08/08 03:38:16;;;;;;;2.20;1.47;;;;;;;13.66;100.00;154867.78;5061710;28;20439;-75
2021/08/08 03:40:52;;;;;;;2.97;1.60;;;;;;;13.63;100.00;154860.00;5067893;28;20446;-75
2021/08/08 03:43:27;;;;;;;1.40;1.23;;;;;;;13.60;100.00;154852.22;5062162;28;20449;-75
2021/08/08 03:54:33;;;;;;;3.20;1.80;;;;;;;13.50;100.00;154826.25;5060230;28;20446;-75
2021/08/08 03:57:14;;;;;;;2.23;1.93;;;;;;;13.48;100.00;154822.34;5055669;28;20430;-76
2021/08/08 04:03:53;;;;;;;3.40;1.30;;;;;;;13.46;100.00;154817.16;5063672;28;20526;-75
2021/08/08 04:06:28;;;;;;;4.87;1.67;;;;;;;13.41;100.00;154805.50;5068242;28;20438;-76
2021/08/08 04:09:06;;;;;;;3.13;1.50;;;;;;;13.40;100.00;154801.56;5048792;28;20511;-75
2021/08/08 04:11:43;;;;;;;6.13;1.60;;;;;;;13.39;100.00;154800.31;5088451;28;20434;-75
2021/08/08 04:14:20;;;;;;;2.90;1.40;;;;;;;13.42;100.00;154808.06;5076672;28;20459;-75
2021/08/08 04:16:56;;;;;;;1.90;1.50;;;;;;;13.40;100.00;154802.88;5051181;28;20622;-75
2021/08/08 04:19:31;;;;;;;2.40;1.60;;;;;;;13.40;100.00;154801.56;5048078;28;20521;-75
2021/08/08 04:22:07;;;;;;;2.00;1.30;;;;;;;13.39;100.00;154800.31;5050927;28;20621;-75
2021/08/08 04:24:45;;;;;;;1.80;1.47;;;;;;;13.38;100.00;154797.69;5051037;28;20478;-76
2021/08/08 04:27:22;;;;;;;4.57;1.43;;;;;;;13.43;100.00;154809.38;5054045;28;20439;-75
2021/08/08 04:29:57;;;;;;;2.13;1.93;;;;;;;13.45;100.00;154814.53;5051009;28;20867;-75
2021/08/08 04:32:33;;;;;;;2.10;1.33;;;;;;;13.48;100.00;154822.34;5082845;28;20451;-75
2021/08/08 04:35:09;;;;;;;1.90;1.30;;;;;;;13.52;100.00;154831.44;5050859;28;20439;-75
2021/08/08 04:37:45;;;;;;;1.93;1.70;;;;;;;13.51;100.00;154830.13;5043330;28;20441;-75
2021/08/08 04:40:21;;;;;;;1.33;1.17;;;;;;;13.48;100.00;154822.34;5067075;28;20453;-75
2021/08/08 04:42:58;;;;;;;3.63;1.87;;;;;;;13.52;100.00;154831.44;5082599;28;20645;-75
2021/08/08 04:45:35;;;;;;;6.73;2.77;;;;;;;13.53;100.00;154834.06;5057429;28;20917;-75
2021/08/08 04:48:11;;;;;;;1.97;1.37;;;;;;;13.54;100.00;154836.63;5055141;28;20434;-75
2021/08/08 04:50:46;;;;;;;2.43;1.60;;;;;;;13.58;100.00;154848.28;5062097;28;20451;-75
2021/08/08 04:53:22;;;;;;;4.40;1.53;;;;;;;13.60;100.00;154853.50;5067127;28;20458;-75
2021/08/08 04:55:59;;;;;;;3.93;1.77;;;;;;;13.60;100.00;154852.22;5067472;28;20474;-75
2021/08/08 04:58:36;;;;;;;3.00;1.57;;;;;;;13.65;100.00;154865.19;5066473;28;20485;-75
2021/08/08 05:01:11;;;;;;;2.37;1.70;;;;;;;13.71;100.00;154882.06;5069090;28;20917;-75
2021/08/08 05:03:47;;;;;;;1.83;1.53;;;;;;;13.76;100.00;154893.75;5070596;28;20849;-75
2021/08/08 05:06:22;;;;;;;2.27;1.47;;;;;;;13.96;100.00;154945.66;5088629;28;20442;-75
2021/08/08 05:08:58;;;;;;;2.80;1.70;;;;;;;14.68;100.00;155131.41;5081776;28;20884;-75
2021/08/08 05:11:33;;;;;;;1.70;1.60;;;;;;;15.64;100.00;155379.66;5087571;28;20938;-76
2021/08/08 05:14:11;;;;;;;1.97;1.20;;;;;;;16.52;94.60;155605.88;5047435;28;20447;-75
2021/08/08 05:16:49;;;;;;;4.60;1.50;;;;;;;17.16;90.43;155769.84;5090704;28;20455;-75
2021/08/08 05:19:24;;;;;;;7.13;1.20;;;;;;;17.66;86.47;155898.78;5089784;28;20452;-75
2021/08/08 05:22:00;;;;;;;2.10;1.40;;;;;;;18.21;83.41;156043.28;5088460;28;20448;-75
2021/08/08 05:24:38;;;;;;;3.27;1.20;;;;;;;18.63;83.19;156150.16;5037236;28;20474;-75
2021/08/08 05:27:14;;;;;;;1.87;1.37;;;;;;;18.75;80.47;156181.41;5087748;28;20425;-75
2021/08/08 05:29:51;;;;;;;1.53;1.43;;;;;;;18.76;79.42;156185.34;5054721;28;20502;-75
2021/08/08 05:32:26;;;;;;;3.53;1.13;;;;;;;18.98;80.34;156240.06;5069412;28;20451;-75
2021/08/08 05:35:03;;;;;;;1.33;1.10;;;;;;;19.21;79.26;156301.31;5069939;28;20762;-75
2021/08/08 05:37:39;;;;;;;1.40;0.97;;;;;;;19.39;78.57;156348.28;5106565;28;20441;-75
2021/08/08 05:40:15;;;;;;;2.50;1.00;;;;;;;19.36;78.29;156340.41;5072657;28;20453;-76
2021/08/08 05:42:54;;;;;;;2.60;1.30;;;;;;;19.56;76.63;156390.00;5058146;28;20793;-75
2021/08/08 05:45:30;;;;;;;1.43;1.07;;;;;;;19.61;76.76;156404.34;5087281;28;20470;-75
2021/08/08 05:48:07;;;;;;;3.10;1.10;;;;;;;19.78;76.23;156447.31;5069093;28;20465;-75
2021/08/08 05:51:03;;;;;;;1.70;0.90;;;;;;;19.94;76.42;156489.06;5065239;28;20814;-75
2021/08/08 05:53:42;;;;;;;1.37;1.10;;;;;;;19.92;75.28;156483.84;5036642;28;20451;-75
2021/08/08 05:56:21;;;;;;;1.50;1.10;;;;;;;19.99;77.43;156502.09;5087236;28;20442;-75
2021/08/08 05:58:56;;;;;;;1.43;1.00;;;;;;;20.10;75.53;156530.78;5084469;28;20446;-76
2021/08/08 06:01:33;;;;;;;2.83;1.00;;;;;;;20.13;75.21;156538.63;5056994;28;20511;-75
2021/08/08 06:04:09;;;;;;;1.97;0.93;;;;;;;20.29;74.90;156579.09;5051945;28;20459;-75
2021/08/08 06:06:44;;;;;;;2.17;1.00;;;;;;;20.39;75.17;156606.47;5072958;28;20438;-75
2021/08/08 06:09:20;;;;;;;1.93;0.90;;;;;;;20.35;75.42;156594.75;5057212;28;20470;-75
2021/08/08 06:11:55;;;;;;;1.80;1.00;;;;;;;20.50;73.50;156635.19;5055271;28;20835;-75
2021/08/08 06:14:31;;;;;;;1.90;1.10;;;;;;;20.58;73.61;156654.75;5071220;28;20473;-75
2021/08/08 06:17:08;;;;;;;1.23;0.80;;;;;;;20.81;72.47;156713.47;5094077;28;20861;-75
2021/08/08 06:19:43;;;;;;;1.73;0.80;;;;;;;20.76;71.01;156700.44;5042981;28;20434;-75
2021/08/08 06:22:19;;;;;;;1.30;0.80;;;;;;;20.84;72.54;156722.59;5090751;28;20544;-73
2021/08/08 06:24:54;;;;;;;3.90;0.80;;;;;;;21.16;71.66;156804.84;5089124;28;20572;-75
2021/08/08 06:27:30;;;;;;;1.20;0.80;;;;;;;21.42;70.39;156871.44;5054836;28;20932;-73
2021/08/08 06:30:06;;;;;;;1.90;1.00;;;;;;;21.39;71.40;156864.91;5058397;28;20901;-75
2021/08/08 06:32:43;;;;;;;2.30;0.87;;;;;;;21.27;69.23;156832.25;5069373;28;20446;-76
2021/08/08 06:35:19;;;;;;;1.80;0.90;;;;;;;21.51;68.82;156896.22;5056561;28;20445;-75
2021/08/08 06:37:54;;;;;;;2.40;1.70;;;;;;;21.64;68.84;156928.84;5052049;28;20438;-76
2021/08/08 06:40:30;;;;;;;1.70;1.00;;;;;;;21.83;68.24;156979.78;5072296;28;20438;-75
2021/08/08 06:43:06;;;;;;;1.27;0.80;;;;;;;21.83;66.45;156979.78;5071529;28;20449;-75
2021/08/08 06:45:48;;;;;;;1.80;1.00;;;;;;;21.98;67.52;157017.69;5078716;28;20451;-75
2021/08/08 06:48:25;;;;;;;1.37;0.93;;;;;;;22.13;70.94;157055.56;5086599;28;20450;-75
2021/08/08 06:51:01;;;;;;;2.07;1.03;;;;;;;22.12;66.74;157052.94;5087800;28;20817;-75
2021/08/08 06:53:37;;;;;;;1.40;0.77;;;;;;;22.31;67.25;157103.91;5053834;28;20929;-76
2021/08/08 06:56:14;;;;;;;1.60;1.03;;;;;;;22.70;67.69;157204.50;5049835;28;20482;-76
2021/08/08 06:58:49;;;;;;;1.70;1.00;;;;;;;22.52;64.63;157156.13;5050090;28;20446;-76
2021/08/08 07:01:25;;;;;;;2.23;0.83;;;;;;;22.79;64.33;157228.06;5106242;28;20916;-75
2021/08/08 07:04:02;;;;;;;2.87;1.03;;;;;;;22.96;64.29;157272.44;5105131;28;20443;-75
2021/08/08 07:06:38;;;;;;;1.20;1.03;;;;;;;23.44;63.24;157395.34;5086793;28;20483;-76
2021/08/08 07:09:14;;;;;;;1.70;1.10;;;;;;;23.42;63.04;157390.13;5106029;28;20469;-76
2021/08/08 07:11:52;;;;;;;4.43;1.27;;;;;;;23.79;62.92;157485.53;5087279;28;20442;-76
2021/08/08 07:14:54;;;;;;;2.00;0.80;;;;;;;23.69;59.99;157460.72;5058069;28;20450;-75
2021/08/08 07:17:30;;;;;;;2.97;1.00;;;;;;;24.21;61.02;157596.75;5071091;28;20429;-76
2021/08/08 07:20:09;;;;;;;2.70;1.20;;;;;;;24.70;60.21;157722.31;5102463;28;20457;-76
2021/08/08 07:22:44;;;;;;;3.37;1.13;;;;;;;24.83;56.59;157757.66;5069960;28;20438;-76
2021/08/08 07:25:20;;;;;;;2.70;1.23;;;;;;;25.00;57.75;157800.84;5053000;28;20477;-76
2021/08/08 07:27:55;;;;;;;2.33;1.10;;;;;;;25.27;56.03;157870.19;5068620;28;20924;-74
2021/08/08 07:30:32;;;;;;;5.30;1.37;;;;;;;25.51;56.35;157933.06;5039144;28;20459;-75
2021/08/08 07:33:08;;;;;;;3.43;1.43;;;;;;;25.85;54.79;158020.78;5048661;28;20455;-75
2021/08/08 07:35:45;;;;;;;2.93;1.30;;;;;;;25.93;55.28;158041.72;5082264;28;20442;-74
2021/08/08 07:38:21;;;;;;;1.83;0.90;;;;;;;26.16;53.57;158101.97;5069901;28;20442;-74
2021/08/08 07:40:57;;;;;;;2.40;1.30;;;;;;;25.82;53.59;158012.91;5093511;28;20469;-74
2021/08/08 07:43:32;;;;;;;2.47;1.10;;;;;;;25.77;54.68;157999.81;5068848;28;20467;-74
2021/08/08 07:46:08;;;;;;;2.40;1.30;;;;;;;26.09;51.46;158082.28;5067127;28;20437;-74
2021/08/08 07:48:45;;;;;;;3.10;1.70;;;;;;;26.88;52.53;158288.00;5078270;28;20450;-75
2021/08/08 07:51:23;;;;;;;1.70;1.60;;;;;;;26.01;53.90;158064.00;5065795;28;20422;-76
2021/08/08 07:53:58;;;;;;;2.40;1.40;;;;;;;25.88;53.15;158028.63;5049181;28;20552;-75
2021/08/08 07:56:34;;;;;;;1.50;1.30;;;;;;;26.39;50.80;158160.94;5062554;28;20422;-75
2021/08/08 07:59:11;;;;;;;2.47;1.37;;;;;;;26.37;50.95;158156.97;5049325;28;20447;-77
2021/08/08 08:01:48;;;;;;;1.57;1.13;;;;;;;25.43;50.31;157913.41;5077892;28;20473;-77
2021/08/08 08:04:25;;;;;;;4.60;1.30;;;;;;;25.40;52.63;157905.53;5067334;28;20449;-74
2021/08/08 08:07:02;;;;;;;2.33;1.20;;;;;;;25.94;50.41;158045.66;5049456;28;20487;-74
2021/08/08 08:09:38;;;;;;;2.00;1.30;;;;;;;26.00;49.90;158060.03;5101924;28;20513;-74
2021/08/08 08:12:14;;;;;;;1.40;1.13;;;;;;;26.37;50.54;158156.97;5064699;28;20434;-74
2021/08/08 08:14:49;;;;;;;1.60;1.20;;;;;;;26.68;49.01;158235.59;5050958;28;20545;-77
2021/08/08 08:17:25;;;;;;;2.27;1.20;;;;;;;26.29;49.62;158136.03;5066639;28;20790;-77
2021/08/08 08:20:00;;;;;;;1.30;1.20;;;;;;;26.36;52.19;158153.06;5070773;28;20446;-77
2021/08/08 08:22:37;;;;;;;3.03;1.30;;;;;;;26.32;50.37;158143.88;5054368;28;20454;-77
2021/08/08 08:25:13;;;;;;;1.87;1.03;;;;;;;25.38;50.60;157899.00;5053842;28;20562;-74
2021/08/08 08:27:57;;;;;;;1.17;1.07;;;;;;;25.41;52.55;157908.19;5064579;28;20441;-74
2021/08/08 08:30:33;;;;;;;1.27;1.13;;;;;;;25.44;50.70;157914.72;5064070;28;20454;-74
2021/08/08 08:33:09;;;;;;;3.40;1.23;;;;;;;24.70;51.50;157723.59;5061307;28;20538;-74
2021/08/08 08:35:45;;;;;;;1.80;1.20;;;;;;;25.17;51.82;157845.34;5052376;28;20441;-74
2021/08/08 08:38:22;;;;;;;1.37;0.90;;;;;;;24.56;50.44;157685.69;5080546;28;20449;-74
2021/08/08 08:40:59;;;;;;;1.30;1.20;;;;;;;24.29;53.20;157616.34;5081088;28;20470;-74
2021/08/08 08:43:35;;;;;;;2.10;1.20;;;;;;;23.98;52.04;157536.56;5072554;28;20489;-74
2021/08/08 08:46:12;;;;;;;1.40;1.00;;;;;;;23.65;53.87;157450.25;5073336;28;20426;-76
2021/08/08 08:48:48;;;;;;;1.57;1.27;;;;;;;23.34;51.56;157369.16;5067570;28;20949;-76
2021/08/08 08:51:29;;;;;;;1.60;1.27;;;;;;;23.08;56.12;157301.22;5037266;28;20557;-77
2021/08/08 08:54:06;;;;;;;1.30;1.10;;;;;;;22.83;55.54;157238.47;5038050;28;20541;-77
2021/08/08 08:56:42;;;;;;;1.87;1.20;;;;;;;22.53;55.58;157160.03;5040731;28;20871;-76
2021/08/08 08:59:19;;;;;;;1.93;1.40;;;;;;;22.45;58.75;157140.44;5071388;28;20445;-76
2021/08/08 09:01:54;;;;;;;1.47;1.37;;;;;;;22.35;56.25;157113.00;5056320;28;20438;-77
2021/08/08 09:04:30;;;;;;;1.43;1.13;;;;;;;22.01;60.64;157024.22;5057101;28;20453;-76
2021/08/08 09:07:05;;;;;;;1.90;1.30;;;;;;;21.84;65.18;156981.09;5070678;28;20438;-76
2021/08/08 09:09:42;;;;;;;1.60;1.20;;;;;;;21.76;62.65;156960.22;5045241;28;20505;-76
2021/08/08 09:12:22;;;;;;;2.33;1.30;;;;;;;21.75;62.03;156958.91;5071041;28;20446;-76
2021/08/08 09:15:01;;;;;;;1.67;1.37;;;;;;;21.73;61.54;156952.38;5056757;28;20450;-76
2021/08/08 09:17:41;;;;;;;1.60;1.30;;;;;;;21.85;63.20;156985.00;5057655;28;20924;-76
2021/08/08 09:20:16;;;;;;;2.37;1.60;;;;;;;21.81;62.39;156973.25;5056461;28;20442;-77
2021/08/08 09:22:58;;;;;;;1.50;1.20;;;;;;;22.27;59.46;157092.13;5056980;28;20875;-77
2021/08/08 09:25:38;;;;;;;6.10;1.70;;;;;;;22.42;59.08;157132.59;5070411;28;20465;-77
2021/08/08 09:28:13;;;;;;;2.13;1.33;;;;;;;22.91;59.32;157259.38;5071580;28;20589;-77
2021/08/08 09:30:51;;;;;;;3.50;1.93;;;;;;;23.22;58.50;157337.81;5050683;28;20474;-76
2021/08/08 09:33:28;;;;;;;2.50;1.90;;;;;;;23.38;55.79;157379.63;5056837;28;20433;-76
2021/08/08 09:36:03;;;;;;;2.50;1.80;;;;;;;23.32;55.44;157363.94;5103742;28;20454;-76
2021/08/08 09:38:46;;;;;;;1.90;1.20;;;;;;;23.29;55.09;157357.41;5072347;28;20433;-77
2021/08/08 09:41:26;;;;;;;3.10;1.20;;;;;;;23.48;55.10;157407.09;5056683;28;20441;-76
2021/08/08 09:44:07;;;;;;;2.23;1.30;;;;;;;23.59;54.64;157434.53;5103282;28;20531;-76
2021/08/08 09:46:42;;;;;;;1.07;0.93;;;;;;;23.69;52.18;157460.72;5052347;28;20482;-77
2021/08/08 09:49:18;;;;;;;2.13;1.30;;;;;;;23.66;52.27;157451.56;5061318;28;20446;-76
2021/08/08 09:51:54;;;;;;;1.57;1.03;;;;;;;23.48;53.27;157405.81;5052349;28;20850;-76
2021/08/08 09:54:36;;;;;;;1.60;1.27;;;;;;;23.87;54.67;157506.47;5103648;28;20442;-76
2021/08/08 09:57:13;;;;;;;2.40;1.70;;;;;;;23.83;51.24;157497.28;5072433;28;20434;-76
2021/08/08 09:59:49;;;;;;;1.70;1.50;;;;;;;23.73;51.34;157471.16;5072929;28;20909;-77
2021/08/08 10:02:25;;;;;;;2.43;1.60;;;;;;;23.92;52.61;157520.84;5089284;28;20450;-77
2021/08/08 10:05:00;;;;;;;1.63;1.27;;;;;;;24.28;56.65;157613.72;5072447;28;20441;-77
2021/08/08 10:07:35;;;;;;;1.90;1.17;;;;;;;24.53;50.43;157677.81;5053892;28;20504;-76
2021/08/08 10:10:11;;;;;;;1.40;1.30;;;;;;;24.54;49.87;157681.72;5070460;28;20453;-77
2021/08/08 10:12:59;;;;;;;1.40;1.30;;;;;;;24.38;49.72;157639.91;5074051;28;20438;-77
2021/08/08 10:15:37;;;;;;;5.03;1.47;;;;;;;24.42;52.33;157649.03;5052201;28;20446;-77
2021/08/08 10:18:14;;;;;;;1.90;1.33;;;;;;;24.08;50.35;157561.38;5105602;28;20439;-77
2021/08/08 10:20:49;;;;;;;1.73;1.10;;;;;;;24.03;51.90;157548.31;5054431;28;20525;-77
2021/08/08 10:23:27;;;;;;;2.47;1.10;;;;;;;24.18;51.77;157587.56;5063372;28;20447;-77
2021/08/08 10:26:02;;;;;;;1.50;1.40;;;;;;;24.37;51.76;157635.97;5052274;28;20490;-77
2021/08/08 10:28:40;;;;;;;2.17;1.43;;;;;;;24.55;54.34;157683.03;5056217;28;20435;-77
2021/08/08 10:31:17;;;;;;;1.50;1.33;;;;;;;24.50;52.99;157671.28;5060339;28;20479;-77
2021/08/08 10:33:54;;;;;;;3.50;1.27;;;;;;;24.80;54.22;157748.53;5052287;28;20829;-76
2021/08/08 10:36:30;;;;;;;1.60;1.20;;;;;;;24.71;48.06;157724.91;5037027;28;20526;-76
2021/08/08 10:39:09;;;;;;;1.70;1.20;;;;;;;24.64;47.69;157707.94;5087214;28;20443;-76
2021/08/08 10:41:56;;;;;;;1.40;1.20;;;;;;;24.39;46.18;157642.50;5098464;28;20459;-76
2021/08/08 10:44:45;;;;;;;2.80;1.30;;;;;;;24.01;48.53;157544.34;5087280;28;20445;-77
2021/08/08 10:47:28;;;;;;;2.10;0.93;;;;;;;24.10;55.74;157566.66;5065864;28;20458;-76
2021/08/08 10:50:10;;;;;;;2.53;1.70;;;;;;;24.13;52.50;157574.50;5065862;28;20781;-77
2021/08/08 10:52:46;;;;;;;2.60;2.03;;;;;;;24.07;55.28;157560.06;5068337;28;20509;-77
2021/08/08 10:55:23;;;;;;;1.70;1.10;;;;;;;24.13;50.14;157575.81;5069563;28;20438;-76
2021/08/08 10:58:00;;;;;;;2.20;1.40;;;;;;;24.10;52.57;157567.97;5059049;28;20804;-77
2021/08/08 11:00:36;;;;;;;1.80;1.40;;;;;;;24.18;50.44;157588.91;5105859;28;20933;-77
2021/08/08 11:03:14;;;;;;;1.87;1.10;;;;;;;24.30;48.20;157617.66;5104928;28;20438;-77
2021/08/08 11:05:49;;;;;;;1.40;1.20;;;;;;;23.99;48.22;157537.81;5049828;28;20530;-76
2021/08/08 11:08:25;;;;;;;1.90;1.40;;;;;;;23.89;49.24;157513.00;5066876;28;20438;-77
2021/08/08 11:11:06;;;;;;;2.10;1.30;;;;;;;23.85;52.98;157501.25;5094106;28;20471;-77
2021/08/08 11:13:42;;;;;;;2.60;1.47;;;;;;;23.68;51.38;157458.09;5066081;28;20439;-76
2021/08/08 11:16:19;;;;;;;2.53;1.40;;;;;;;23.79;48.45;157486.88;5064755;28;20454;-77
2021/08/08 11:18:55;;;;;;;2.03;1.17;;;;;;;23.58;50.57;157431.97;5071324;28;20486;-77
2021/08/08 11:21:31;;;;;;;1.90;1.20;;;;;;;23.51;54.87;157413.69;5066394;28;20450;-77
2021/08/08 11:24:10;;;;;;;3.83;1.70;;;;;;;23.55;54.68;157424.09;5091477;28;20501;-76
2021/08/08 11:26:45;;;;;;;1.40;1.30;;;;;;;23.53;52.21;157420.22;5068992;28;20489;-77
2021/08/08 11:29:22;;;;;;;1.50;1.20;;;;;;;23.44;50.16;157396.66;5068494;28;20442;-77
2021/08/08 11:32:04;;;;;;;1.40;1.20;;;;;;;23.63;49.45;157445.03;5061374;28;20505;-77
2021/08/08 11:34:40;;;;;;;1.90;1.37;;;;;;;23.48;52.35;157407.09;5071053;28;20976;-77
2021/08/08 11:37:16;;;;;;;1.50;1.20;;;;;;;23.58;48.97;157431.97;5056224;28;20832;-77
2021/08/08 11:39:52;;;;;;;2.07;1.20;;;;;;;23.61;49.91;157439.81;5071088;28;20441;-76
2021/08/08 11:42:31;;;;;;;1.57;1.37;;;;;;;23.68;52.24;157458.09;5090501;28;20435;-76
2021/08/08 11:45:08;;;;;;;1.50;1.13;;;;;;;23.86;48.38;157503.84;5082864;28;20459;-77
2021/08/08 11:47:47;;;;;;;1.60;1.40;;;;;;;24.09;50.82;157564.06;5052539;28;20477;-77
2021/08/08 11:50:25;;;;;;;1.50;1.40;;;;;;;24.12;48.11;157573.19;5097901;28;20451;-76
2021/08/08 11:53:03;;;;;;;1.70;1.43;;;;;;;24.08;52.27;157562.75;5053808;28;20948;-76
2021/08/08 11:55:39;;;;;;;1.40;1.10;;;;;;;24.13;46.60;157575.81;5099857;28;20536;-77
2021/08/08 11:58:14;;;;;;;2.60;1.50;;;;;;;24.15;54.53;157581.03;5095356;28;20458;-76
2021/08/08 12:00:49;;;;;;;2.50;1.60;;;;;;;24.10;49.78;157567.97;5102909;28;20441;-77
2021/08/08 12:03:32;;;;;;;1.67;1.47;;;;;;;24.22;48.65;157599.31;5070719;28;20529;-76
2021/08/08 12:06:08;;;;;;;1.50;1.33;;;;;;;24.19;47.25;157590.22;5055455;28;20475;-76
2021/08/08 12:08:43;;;;;;;1.87;1.40;;;;;;;24.08;46.54;157561.38;5057520;28;20442;-76
2021/08/08 12:11:20;;;;;;;1.67;1.47;;;;;;;24.10;46.90;157566.66;5064676;28;20474;-77
2021/08/08 12:14:03;;;;;;;2.17;1.47;;;;;;;24.06;51.68;157557.47;5070580;28;20438;-77
2021/08/08 12:16:40;;;;;;;1.60;1.33;;;;;;;23.68;53.24;157458.09;5069731;28;20457;-76
2021/08/08 12:19:17;;;;;;;1.30;1.00;;;;;;;23.48;49.76;157405.81;5070333;28;20430;-76
2021/08/08 12:22:00;;;;;;;1.10;0.80;;;;;;;23.28;49.71;157353.47;5064603;28;20454;-77